This is the latest recevied weather packets stored in our database for station/object N3MFL. If no packets are shown the sender has not sent any weather packets the latest 10 day(s).
| Time | Temp. | Humidity | Pressure | Rain* | Wind** | Luminosity | Snow |
|---|---|---|---|---|---|---|---|
| 1777896849 | 13.89° C | 43% | 1012.9 hPa | 0 mm | - | 260 W/m² | - |
| 1777896547 | 13.89° C | 45% | 1012.8 hPa | 0 mm | - | 246 W/m² | - |
| 1777896243 | 13.33° C | 46% | 1012.7 hPa | 0 mm | - | 234 W/m² | - |
| 1777895942 | 12.78° C | 46% | 1012.9 hPa | 0 mm | - | 219 W/m² | - |
| 1777895639 | 12.78° C | 47% | 1012.8 hPa | 0 mm | - | 204 W/m² | - |
| 1777895336 | 12.22° C | 49% | 1012.6 hPa | 0 mm | - | 182 W/m² | - |
| 1777894427 | 8.89° C | 60% | 1012.6 hPa | 0 mm | - | 154 W/m² | - |
| 1777894125 | 7.22° C | 73% | 1012.7 hPa | 0 mm | - | 66 W/m² | - |
| 1777893822 | 5.56° C | 79% | 1012.8 hPa | 0 mm | - | 67 W/m² | - |
| 1777893518 | 5° C | 81% | 1012.9 hPa | 0 mm | - | 64 W/m² | - |
| 1777893215 | 4.44° C | 83% | 1012.6 hPa | 0 mm | - | 62 W/m² | - |
| 1777892911 | 4.44° C | 83% | 1012.6 hPa | 0 mm | - | 55 W/m² | - |
| 1777892608 | 3.89° C | 85% | 1012.7 hPa | 0 mm | - | 48 W/m² | - |
| 1777892303 | 3.33° C | 85% | 1012.6 hPa | 0 mm | - | 54 W/m² | - |
| 1777891698 | 2.78° C | 86% | 1012.9 hPa | 0 mm | - | 37 W/m² | - |
| 1777890481 | 2.78° C | 86% | 1012.7 hPa | 0 mm | - | 25 W/m² | - |
| 1777890176 | 2.78° C | 86% | 1012.7 hPa | 0 mm | - | 23 W/m² | - |
| 1777889873 | 2.78° C | 86% | 1012.7 hPa | 0 mm | - | 20 W/m² | - |
| 1777889571 | 2.22° C | 85% | 1012.6 hPa | 0 mm | - | 17 W/m² | - |
| 1777889268 | 2.78° C | 85% | 1012.6 hPa | 0 mm | - | 15 W/m² | - |
| 1777888966 | 2.78° C | 84% | 1012.6 hPa | 0 mm | - | 12 W/m² | - |
| 1777888663 | 2.78° C | 83% | 1012.6 hPa | 0 mm | - | 10 W/m² | - |
| 1777887449 | 3.89° C | 80% | 1012.3 hPa | 0 mm | - | 2 W/m² | - |
| 1777887144 | 3.89° C | 78% | 1012.4 hPa | 0 mm | - | 1 W/m² | - |
| 1777886840 | 3.89° C | 78% | 1012.2 hPa | 0 mm | - | 1 W/m² | - |
* Rain latest hour (hover to see other rain measurements)
** Current wind speed in m/s (hover to see current wind gust speed)